sensor_id;sensor_type;location;lat;lon;timestamp;pressure;altitude;pressure_sealevel;temperature;humidity
3178;BME280;38141;42.666;23.344;2023-11-19T00:01:35;94615.28;;;3.89;100.00
3178;BME280;38141;42.666;23.344;2023-11-19T00:04:04;94610.63;;;3.86;100.00
3178;BME280;38141;42.666;23.344;2023-11-19T00:06:31;94587.38;;;3.74;100.00
3178;BME280;38141;42.666;23.344;2023-11-19T00:08:58;94618.66;;;3.86;100.00
3178;BME280;38141;42.666;23.344;2023-11-19T00:11:25;94617.28;;;3.92;100.00
3178;BME280;38141;42.666;23.344;2023-11-19T00:13:52;94618.06;;;3.92;100.00
3178;BME280;38141;42.666;23.344;2023-11-19T00:16:19;94610.03;;;3.92;100.00
3178;BME280;38141;42.666;23.344;2023-11-19T00:18:46;94610.03;;;3.92;100.00
3178;BME280;38141;42.666;23.344;2023-11-19T00:21:16;94612.78;;;3.96;100.00
3178;BME280;38141;42.666;23.344;2023-11-19T00:23:43;94605.63;;;4.00;100.00
3178;BME280;38141;42.666;23.344;2023-11-19T00:26:12;94613.25;;;3.98;100.00
3178;BME280;38141;42.666;23.344;2023-11-19T00:28:40;94612.59;;;3.89;100.00
3178;BME280;38141;42.666;23.344;2023-11-19T00:31:08;94619.69;;;3.97;100.00
3178;BME280;38141;42.666;23.344;2023-11-19T00:33:35;94621.06;;;3.91;100.00
3178;BME280;38141;42.666;23.344;2023-11-19T00:36:03;94612.78;;;3.96;100.00
3178;BME280;38141;42.666;23.344;2023-11-19T00:38:32;94621.25;;;3.98;100.00
3178;BME280;38141;42.666;23.344;2023-11-19T00:41:01;94624.63;;;3.95;100.00
3178;BME280;38141;42.666;23.344;2023-11-19T00:43:28;94626.78;;;3.89;100.00
3178;BME280;38141;42.666;23.344;2023-11-19T00:45:54;94610.09;;;3.80;100.00
3178;BME280;38141;42.666;23.344;2023-11-19T00:48:21;94635.66;;;3.93;100.00
3178;BME280;38141;42.666;23.344;2023-11-19T00:50:48;94631.56;;;3.84;100.00
3178;BME280;38141;42.666;23.344;2023-11-19T00:53:15;94628.56;;;3.85;100.00
3178;BME280;38141;42.666;23.344;2023-11-19T00:55:44;94622.88;;;3.87;100.00
3178;BME280;38141;42.666;23.344;2023-11-19T00:58:10;94620.63;;;3.89;100.00
3178;BME280;38141;42.666;23.344;2023-11-19T01:00:37;94609.31;;;3.80;100.00
3178;BME280;38141;42.666;23.344;2023-11-19T01:03:05;94619.16;;;3.91;100.00
3178;BME280;38141;42.666;23.344;2023-11-19T01:05:33;94625.44;;;3.83;100.00
3178;BME280;38141;42.666;23.344;2023-11-19T01:07:59;94619.22;;;3.79;100.00
3178;BME280;38141;42.666;23.344;2023-11-19T01:10:26;94635.34;;;3.95;100.00
3178;BME280;38141;42.666;23.344;2023-11-19T01:12:55;94637.38;;;3.86;100.00
3178;BME280;38141;42.666;23.344;2023-11-19T01:15:22;94632.16;;;3.77;100.00
3178;BME280;38141;42.666;23.344;2023-11-19T01:17:50;94613.69;;;3.72;100.00
3178;BME280;38141;42.666;23.344;2023-11-19T01:20:17;94623.47;;;3.80;100.00
3178;BME280;38141;42.666;23.344;2023-11-19T01:22:45;94606.25;;;3.66;100.00
3178;BME280;38141;42.666;23.344;2023-11-19T01:25:14;94613.19;;;3.82;100.00
3178;BME280;38141;42.666;23.344;2023-11-19T01:27:41;94603.56;;;3.66;100.00
3178;BME280;38141;42.666;23.344;2023-11-19T01:30:11;94627.25;;;3.79;100.00
3178;BME280;38141;42.666;23.344;2023-11-19T01:32:39;94633.63;;;3.75;100.00
3178;BME280;38141;42.666;23.344;2023-11-19T01:35:07;94638.72;;;3.80;100.00
3178;BME280;38141;42.666;23.344;2023-11-19T01:37:34;94637.75;;;3.72;100.00
3178;BME280;38141;42.666;23.344;2023-11-19T01:40:02;94628.56;;;3.57;100.00
3178;BME280;38141;42.666;23.344;2023-11-19T01:42:29;94638.00;;;3.67;100.00
3178;BME280;38141;42.666;23.344;2023-11-19T01:45:00;94630.50;;;3.73;100.00
3178;BME280;38141;42.666;23.344;2023-11-19T01:47:30;94638.53;;;3.73;100.00
3178;BME280;38141;42.666;23.344;2023-11-19T01:50:00;94645.34;;;3.70;100.00
3178;BME280;38141;42.666;23.344;2023-11-19T01:52:32;94633.66;;;3.63;100.00
3178;BME280;38141;42.666;23.344;2023-11-19T01:55:02;94652.00;;;3.76;100.00
3178;BME280;38141;42.666;23.344;2023-11-19T01:57:30;94657.69;;;3.75;100.00
3178;BME280;38141;42.666;23.344;2023-11-19T01:59:57;94659.69;;;3.78;100.00
3178;BME280;38141;42.666;23.344;2023-11-19T02:02:25;94657.38;;;3.76;100.00
3178;BME280;38141;42.666;23.344;2023-11-19T02:04:53;94658.25;;;3.68;100.00
3178;BME280;38141;42.666;23.344;2023-11-19T02:07:20;94647.53;;;3.80;100.00
3178;BME280;38141;42.666;23.344;2023-11-19T02:09:48;94654.09;;;3.83;100.00
3178;BME280;38141;42.666;23.344;2023-11-19T02:12:15;94629.97;;;3.67;100.00
3178;BME280;38141;42.666;23.344;2023-11-19T02:14:41;94639.47;;;3.92;100.00
3178;BME280;38141;42.666;23.344;2023-11-19T02:17:25;94645.41;;;3.86;100.00
3178;BME280;38141;42.666;23.344;2023-11-19T02:19:54;94646.16;;;3.86;100.00
3178;BME280;38141;42.666;23.344;2023-11-19T02:22:21;94651.03;;;3.96;100.00
3178;BME280;38141;42.666;23.344;2023-11-19T02:24:51;94634.25;;;3.84;100.00
3178;BME280;38141;42.666;23.344;2023-11-19T02:27:29;94640.41;;;4.00;100.00
3178;BME280;38141;42.666;23.344;2023-11-19T02:29:58;94643.38;;;4.11;100.00
3178;BME280;38141;42.666;23.344;2023-11-19T02:32:27;94643.84;;;3.85;100.00
3178;BME280;38141;42.666;23.344;2023-11-19T02:34:56;94635.09;;;3.72;100.00
3178;BME280;38141;42.666;23.344;2023-11-19T02:37:23;94631.19;;;3.70;100.00
3178;BME280;38141;42.666;23.344;2023-11-19T02:39:50;94629.09;;;3.63;100.00
3178;BME280;38141;42.666;23.344;2023-11-19T02:42:17;94643.91;;;3.61;100.00
3178;BME280;38141;42.666;23.344;2023-11-19T02:44:44;94633.75;;;3.66;100.00
3178;BME280;38141;42.666;23.344;2023-11-19T02:47:13;94640.69;;;3.67;100.00
3178;BME280;38141;42.666;23.344;2023-11-19T02:49:40;94630.69;;;3.52;100.00
3178;BME280;38141;42.666;23.344;2023-11-19T02:52:08;94640.03;;;3.58;100.00
3178;BME280;38141;42.666;23.344;2023-11-19T02:54:36;94627.91;;;3.48;100.00
3178;BME280;38141;42.666;23.344;2023-11-19T02:57:05;94636.50;;;3.42;100.00
3178;BME280;38141;42.666;23.344;2023-11-19T02:59:37;94618.59;;;3.30;100.00
3178;BME280;38141;42.666;23.344;2023-11-19T03:02:07;94622.47;;;3.33;100.00
3178;BME280;38141;42.666;23.344;2023-11-19T03:04:38;94613.25;;;3.30;100.00
3178;BME280;38141;42.666;23.344;2023-11-19T03:07:05;94616.50;;;3.24;100.00
3178;BME280;38141;42.666;23.344;2023-11-19T03:09:33;94627.97;;;3.24;100.00
3178;BME280;38141;42.666;23.344;2023-11-19T03:12:03;94623.72;;;3.23;100.00
3178;BME280;38141;42.666;23.344;2023-11-19T03:14:33;94643.56;;;3.22;100.00
3178;BME280;38141;42.666;23.344;2023-11-19T03:17:00;94639.88;;;3.27;100.00
3178;BME280;38141;42.666;23.344;2023-11-19T03:19:27;94620.94;;;3.20;100.00
3178;BME280;38141;42.666;23.344;2023-11-19T03:21:56;94633.88;;;3.18;100.00
3178;BME280;38141;42.666;23.344;2023-11-19T03:24:23;94630.66;;;3.12;100.00
3178;BME280;38141;42.666;23.344;2023-11-19T03:26:50;94630.88;;;3.07;100.00
3178;BME280;38141;42.666;23.344;2023-11-19T03:29:17;94627.97;;;3.00;100.00
3178;BME280;38141;42.666;23.344;2023-11-19T03:31:44;94633.47;;;3.03;100.00
3178;BME280;38141;42.666;23.344;2023-11-19T03:34:11;94641.25;;;3.08;100.00
3178;BME280;38141;42.666;23.344;2023-11-19T03:36:38;94617.88;;;2.93;100.00
3178;BME280;38141;42.666;23.344;2023-11-19T03:39:08;94623.22;;;2.93;100.00
3178;BME280;38141;42.666;23.344;2023-11-19T03:41:35;94646.59;;;3.08;100.00
3178;BME280;38141;42.666;23.344;2023-11-19T03:44:04;94626.31;;;2.95;100.00
3178;BME280;38141;42.666;23.344;2023-11-19T03:46:31;94652.38;;;3.10;100.00
3178;BME280;38141;42.666;23.344;2023-11-19T03:49:01;94660.84;;;3.12;100.00
3178;BME280;38141;42.666;23.344;2023-11-19T03:51:29;94662.50;;;3.17;100.00
3178;BME280;38141;42.666;23.344;2023-11-19T03:53:56;94671.66;;;3.04;100.00
3178;BME280;38141;42.666;23.344;2023-11-19T03:56:28;94674.63;;;3.14;100.00
3178;BME280;38141;42.666;23.344;2023-11-19T03:58:56;94667.84;;;3.05;100.00
3178;BME280;38141;42.666;23.344;2023-11-19T04:01:23;94666.06;;;3.09;100.00
3178;BME280;38141;42.666;23.344;2023-11-19T04:03:50;94676.00;;;3.08;100.00
3178;BME280;38141;42.666;23.344;2023-11-19T04:06:17;94672.06;;;3.06;100.00
3178;BME280;38141;42.666;23.344;2023-11-19T04:08:44;94664.84;;;2.94;100.00
3178;BME280;38141;42.666;23.344;2023-11-19T04:11:13;94676.53;;;3.02;100.00
3178;BME280;38141;42.666;23.344;2023-11-19T04:13:42;94678.88;;;3.03;100.00
3178;BME280;38141;42.666;23.344;2023-11-19T04:16:09;94687.00;;;3.07;100.00
3178;BME280;38141;42.666;23.344;2023-11-19T04:18:36;94680.53;;;2.96;100.00
3178;BME280;38141;42.666;23.344;2023-11-19T04:21:06;94667.75;;;2.89;100.00
3178;BME280;38141;42.666;23.344;2023-11-19T04:23:33;94683.44;;;3.03;100.00
3178;BME280;38141;42.666;23.344;2023-11-19T04:26:03;94651.59;;;2.98;100.00
3178;BME280;38141;42.666;23.344;2023-11-19T04:28:32;94658.94;;;3.01;100.00
3178;BME280;38141;42.666;23.344;2023-11-19T04:31:00;94666.97;;;3.13;100.00
3178;BME280;38141;42.666;23.344;2023-11-19T04:33:28;94679.75;;;3.20;100.00
3178;BME280;38141;42.666;23.344;2023-11-19T04:35:55;94684.88;;;3.25;100.00
3178;BME280;38141;42.666;23.344;2023-11-19T04:38:22;94689.34;;;3.21;100.00
3178;BME280;38141;42.666;23.344;2023-11-19T04:40:52;94689.22;;;3.17;100.00
3178;BME280;38141;42.666;23.344;2023-11-19T04:43:19;94702.81;;;3.24;100.00
3178;BME280;38141;42.666;23.344;2023-11-19T04:45:46;94701.47;;;3.30;100.00
3178;BME280;38141;42.666;23.344;2023-11-19T04:48:14;94688.66;;;3.24;100.00
3178;BME280;38141;42.666;23.344;2023-11-19T04:50:41;94699.13;;;3.29;100.00
3178;BME280;38141;42.666;23.344;2023-11-19T04:53:08;94707.38;;;3.36;100.00
3178;BME280;38141;42.666;23.344;2023-11-19T04:55:37;94687.09;;;3.23;100.00
3178;BME280;38141;42.666;23.344;2023-11-19T04:58:04;94708.69;;;3.42;100.00
3178;BME280;38141;42.666;23.344;2023-11-19T05:00:32;94659.28;;;2.99;100.00
3178;BME280;38141;42.666;23.344;2023-11-19T05:03:01;94716.50;;;3.35;100.00
3178;BME280;38141;42.666;23.344;2023-11-19T05:05:29;94714.16;;;3.33;100.00
3178;BME280;38141;42.666;23.344;2023-11-19T05:07:57;94731.19;;;3.41;100.00
3178;BME280;38141;42.666;23.344;2023-11-19T05:10:23;94728.41;;;3.37;100.00
3178;BME280;38141;42.666;23.344;2023-11-19T05:12:53;94740.88;;;3.45;100.00
3178;BME280;38141;42.666;23.344;2023-11-19T05:15:22;94740.88;;;3.45;100.00
3178;BME280;38141;42.666;23.344;2023-11-19T05:17:49;94736.09;;;3.51;100.00
3178;BME280;38141;42.666;23.344;2023-11-19T05:20:16;94745.22;;;3.50;100.00
3178;BME280;38141;42.666;23.344;2023-11-19T05:22:44;94743.69;;;3.49;100.00
3178;BME280;38141;42.666;23.344;2023-11-19T05:25:11;94738.53;;;3.56;100.00
3178;BME280;38141;42.666;23.344;2023-11-19T05:27:38;94735.53;;;3.45;100.00
3178;BME280;38141;42.666;23.344;2023-11-19T05:30:06;94732.84;;;3.45;100.00
3178;BME280;38141;42.666;23.344;2023-11-19T05:32:35;94735.53;;;3.57;100.00
3178;BME280;38141;42.666;23.344;2023-11-19T05:35:03;94729.53;;;3.48;100.00
3178;BME280;38141;42.666;23.344;2023-11-19T05:37:30;94730.31;;;3.49;100.00
3178;BME280;38141;42.666;23.344;2023-11-19T05:39:58;94731.44;;;3.36;100.00
3178;BME280;38141;42.666;23.344;2023-11-19T05:42:25;94751.91;;;3.44;100.00
3178;BME280;38141;42.666;23.344;2023-11-19T05:44:53;94733.22;;;3.44;100.00
3178;BME280;38141;42.666;23.344;2023-11-19T05:47:20;94752.59;;;3.53;100.00
3178;BME280;38141;42.666;23.344;2023-11-19T05:49:47;94731.66;;;3.31;100.00
3178;BME280;38141;42.666;23.344;2023-11-19T05:52:15;94735.66;;;3.37;100.00
3178;BME280;38141;42.666;23.344;2023-11-19T05:54:43;94720.06;;;3.27;100.00
3178;BME280;38141;42.666;23.344;2023-11-19T05:57:11;94708.72;;;3.30;100.00
3178;BME280;38141;42.666;23.344;2023-11-19T05:59:39;94726.75;;;3.45;100.00
3178;BME280;38141;42.666;23.344;2023-11-19T06:02:06;94727.53;;;3.33;100.00
3178;BME280;38141;42.666;23.344;2023-11-19T06:04:33;94752.94;;;3.39;100.00
3178;BME280;38141;42.666;23.344;2023-11-19T06:07:03;94750.03;;;3.44;100.00
3178;BME280;38141;42.666;23.344;2023-11-19T06:09:30;94766.28;;;3.39;100.00
3178;BME280;38141;42.666;23.344;2023-11-19T06:11:59;94767.06;;;3.40;100.00
3178;BME280;38141;42.666;23.344;2023-11-19T06:14:28;94770.63;;;3.44;100.00
3178;BME280;38141;42.666;23.344;2023-11-19T06:16:55;94777.66;;;3.48;100.00
3178;BME280;38141;42.666;23.344;2023-11-19T06:19:22;94764.41;;;3.40;100.00
3178;BME280;38141;42.666;23.344;2023-11-19T06:21:50;94753.13;;;3.46;100.00
3178;BME280;38141;42.666;23.344;2023-11-19T06:24:18;94746.56;;;3.32;100.00
3178;BME280;38141;42.666;23.344;2023-11-19T06:26:45;94762.81;;;3.51;100.00
3178;BME280;38141;42.666;23.344;2023-11-19T06:29:12;94762.16;;;3.54;100.00
3178;BME280;38141;42.666;23.344;2023-11-19T06:31:45;94763.94;;;3.50;100.00
3178;BME280;38141;42.666;23.344;2023-11-19T06:34:15;94758.28;;;3.39;100.00
3178;BME280;38141;42.666;23.344;2023-11-19T06:36:42;94758.13;;;3.60;100.00
3178;BME280;38141;42.666;23.344;2023-11-19T06:39:09;94768.63;;;3.53;100.00
3178;BME280;38141;42.666;23.344;2023-11-19T06:41:37;94773.97;;;3.53;100.00
3178;BME280;38141;42.666;23.344;2023-11-19T06:44:05;94766.50;;;3.58;100.00
3178;BME280;38141;42.666;23.344;2023-11-19T06:46:32;94757.13;;;3.65;100.00
3178;BME280;38141;42.666;23.344;2023-11-19T06:49:00;94776.19;;;3.75;100.00
3178;BME280;38141;42.666;23.344;2023-11-19T06:51:27;94774.72;;;3.78;100.00
3178;BME280;38141;42.666;23.344;2023-11-19T06:53:55;94771.81;;;3.83;100.00
3178;BME280;38141;42.666;23.344;2023-11-19T06:56:23;94746.84;;;3.79;100.00
3178;BME280;38141;42.666;23.344;2023-11-19T06:58:52;94777.16;;;3.95;100.00
3178;BME280;38141;42.666;23.344;2023-11-19T07:01:20;94772.72;;;3.75;100.00
3178;BME280;38141;42.666;23.344;2023-11-19T07:03:47;94771.94;;;3.74;100.00
3178;BME280;38141;42.666;23.344;2023-11-19T07:06:16;94778.72;;;3.84;100.00
3178;BME280;38141;42.666;23.344;2023-11-19T07:08:44;94764.56;;;3.83;100.00
3178;BME280;38141;42.666;23.344;2023-11-19T07:11:13;94789.97;;;3.77;100.00
3178;BME280;38141;42.666;23.344;2023-11-19T07:13:50;94783.75;;;3.85;100.00
3178;BME280;38141;42.666;23.344;2023-11-19T07:16:17;94787.09;;;3.82;100.00
3178;BME280;38141;42.666;23.344;2023-11-19T07:18:44;94776.91;;;4.00;100.00
3178;BME280;38141;42.666;23.344;2023-11-19T07:21:20;94799.22;;;3.92;100.00
3178;BME280;38141;42.666;23.344;2023-11-19T07:23:47;94784.44;;;3.58;100.00
3178;BME280;38141;42.666;23.344;2023-11-19T07:26:15;94800.13;;;3.84;100.00
3178;BME280;38141;42.666;23.344;2023-11-19T07:28:42;94801.25;;;3.83;100.00
3178;BME280;38141;42.666;23.344;2023-11-19T07:31:10;94806.72;;;3.74;100.00
3178;BME280;38141;42.666;23.344;2023-11-19T07:33:39;94818.75;;;3.80;100.00
3178;BME280;38141;42.666;23.344;2023-11-19T07:36:08;94830.44;;;4.00;100.00
3178;BME280;38141;42.666;23.344;2023-11-19T07:38:39;94824.53;;;4.07;100.00
3178;BME280;38141;42.666;23.344;2023-11-19T07:41:06;94823.97;;;4.13;100.00
3178;BME280;38141;42.666;23.344;2023-11-19T07:43:35;94827.72;;;4.24;100.00
3178;BME280;38141;42.666;23.344;2023-11-19T07:46:02;94834.09;;;4.20;100.00
3178;BME280;38141;42.666;23.344;2023-11-19T07:48:30;94833.81;;;4.37;100.00
3178;BME280;38141;42.666;23.344;2023-11-19T07:50:57;94819.72;;;4.96;98.72
3178;BME280;38141;42.666;23.344;2023-11-19T07:53:23;94811.38;;;4.69;96.59
3178;BME280;38141;42.666;23.344;2023-11-19T07:55:52;94834.19;;;4.63;98.04
3178;BME280;38141;42.666;23.344;2023-11-19T07:58:22;94841.44;;;4.63;99.30
3178;BME280;38141;42.666;23.344;2023-11-19T08:00:49;94832.88;;;4.57;99.41
3178;BME280;38141;42.666;23.344;2023-11-19T08:03:16;94832.66;;;4.50;98.47
3178;BME280;38141;42.666;23.344;2023-11-19T08:05:43;94849.81;;;4.61;98.55
3178;BME280;38141;42.666;23.344;2023-11-19T08:08:10;94852.72;;;4.56;97.65
3178;BME280;38141;42.666;23.344;2023-11-19T08:10:37;94847.84;;;4.46;98.60
3178;BME280;38141;42.666;23.344;2023-11-19T08:13:06;94846.81;;;4.63;96.76
3178;BME280;38141;42.666;23.344;2023-11-19T08:15:34;94837.34;;;4.53;97.16
3178;BME280;38141;42.666;23.344;2023-11-19T08:18:00;94861.16;;;4.70;95.62
3178;BME280;38141;42.666;23.344;2023-11-19T08:20:27;94850.69;;;4.65;94.45
3178;BME280;38141;42.666;23.344;2023-11-19T08:22:54;94856.44;;;4.79;95.13
3178;BME280;38141;42.666;23.344;2023-11-19T08:25:22;94847.03;;;4.58;95.83
3178;BME280;38141;42.666;23.344;2023-11-19T08:27:48;94849.00;;;4.45;96.69
3178;BME280;38141;42.666;23.344;2023-11-19T08:30:17;94858.38;;;4.39;97.40
3178;BME280;38141;42.666;23.344;2023-11-19T08:32:44;94843.31;;;4.34;98.36
3178;BME280;38141;42.666;23.344;2023-11-19T08:35:11;94837.50;;;4.72;98.31
3178;BME280;38141;42.666;23.344;2023-11-19T08:37:38;94827.66;;;4.48;96.16
3178;BME280;38141;42.666;23.344;2023-11-19T08:40:06;94855.81;;;4.98;91.96
3178;BME280;38141;42.666;23.344;2023-11-19T08:42:36;94877.34;;;5.02;91.33
3178;BME280;38141;42.666;23.344;2023-11-19T08:45:05;94871.28;;;4.89;91.15
3178;BME280;38141;42.666;23.344;2023-11-19T08:47:34;94860.63;;;4.92;91.57
3178;BME280;38141;42.666;23.344;2023-11-19T08:50:01;94854.19;;;5.09;90.88
3178;BME280;38141;42.666;23.344;2023-11-19T08:52:32;94854.47;;;5.20;89.09
3178;BME280;38141;42.666;23.344;2023-11-19T08:55:00;94848.06;;;5.24;87.42
3178;BME280;38141;42.666;23.344;2023-11-19T08:57:27;94877.22;;;11.96;62.22
3178;BME280;38141;42.666;23.344;2023-11-19T08:59:56;94876.00;;;14.35;48.52
3178;BME280;38141;42.666;23.344;2023-11-19T09:02:23;94871.41;;;18.61;38.39
3178;BME280;38141;42.666;23.344;2023-11-19T09:04:51;94864.78;;;12.69;45.74
3178;BME280;38141;42.666;23.344;2023-11-19T09:07:18;94858.34;;;15.85;43.07
3178;BME280;38141;42.666;23.344;2023-11-19T09:09:45;94849.47;;;16.31;39.11
3178;BME280;38141;42.666;23.344;2023-11-19T09:12:12;94848.69;;;13.28;43.93
3178;BME280;38141;42.666;23.344;2023-11-19T09:14:39;94838.88;;;10.65;48.87
3178;BME280;38141;42.666;23.344;2023-11-19T09:17:07;94834.59;;;10.06;52.04
3178;BME280;38141;42.666;23.344;2023-11-19T09:19:35;94814.38;;;9.05;53.04
3178;BME280;38141;42.666;23.344;2023-11-19T09:22:03;94846.06;;;8.78;55.93
3178;BME280;38141;42.666;23.344;2023-11-19T09:24:30;94855.13;;;7.87;57.01
3178;BME280;38141;42.666;23.344;2023-11-19T09:26:58;94852.84;;;7.21;60.30
3178;BME280;38141;42.666;23.344;2023-11-19T09:29:25;94837.22;;;6.69;63.98
3178;BME280;38141;42.666;23.344;2023-11-19T09:31:52;94863.47;;;6.56;64.60
3178;BME280;38141;42.666;23.344;2023-11-19T09:34:19;94832.25;;;7.09;64.19
3178;BME280;38141;42.666;23.344;2023-11-19T09:36:48;94841.81;;;7.26;63.42
3178;BME280;38141;42.666;23.344;2023-11-19T09:39:16;94853.09;;;6.93;64.65
3178;BME280;38141;42.666;23.344;2023-11-19T09:41:44;94820.13;;;6.58;66.23
3178;BME280;38141;42.666;23.344;2023-11-19T09:44:12;94792.13;;;6.05;68.52
3178;BME280;38141;42.666;23.344;2023-11-19T09:46:41;94775.00;;;5.78;70.37
3178;BME280;38141;42.666;23.344;2023-11-19T09:49:08;94810.09;;;6.20;71.30
3178;BME280;38141;42.666;23.344;2023-11-19T09:51:39;94794.78;;;6.20;70.43
3178;BME280;38141;42.666;23.344;2023-11-19T09:54:07;94784.69;;;6.33;70.10
3178;BME280;38141;42.666;23.344;2023-11-19T09:56:40;94782.22;;;6.44;70.11
3178;BME280;38141;42.666;23.344;2023-11-19T09:59:07;94796.09;;;6.11;71.21
3178;BME280;38141;42.666;23.344;2023-11-19T10:01:37;94797.53;;;5.89;72.80
3178;BME280;38141;42.666;23.344;2023-11-19T10:04:05;94800.41;;;5.65;75.22
3178;BME280;38141;42.666;23.344;2023-11-19T10:06:33;94798.53;;;6.00;73.62
3178;BME280;38141;42.666;23.344;2023-11-19T10:09:00;94784.56;;;5.60;75.35
3178;BME280;38141;42.666;23.344;2023-11-19T10:11:27;94797.25;;;5.78;75.26
3178;BME280;38141;42.666;23.344;2023-11-19T10:13:55;94793.00;;;6.28;74.65
3178;BME280;38141;42.666;23.344;2023-11-19T10:16:28;94780.81;;;6.31;74.37
3178;BME280;38141;42.666;23.344;2023-11-19T10:18:59;94797.66;;;6.12;74.63
3178;BME280;38141;42.666;23.344;2023-11-19T10:21:26;94797.28;;;5.94;74.21
3178;BME280;38141;42.666;23.344;2023-11-19T10:23:55;94793.28;;;5.88;75.04
3178;BME280;38141;42.666;23.344;2023-11-19T10:26:27;94782.44;;;6.00;73.54
3178;BME280;38141;42.666;23.344;2023-11-19T10:28:56;94772.66;;;6.27;71.96
3178;BME280;38141;42.666;23.344;2023-11-19T10:31:24;94765.66;;;5.88;72.80
3178;BME280;38141;42.666;23.344;2023-11-19T10:33:52;94769.53;;;5.40;76.43
3178;BME280;38141;42.666;23.344;2023-11-19T10:36:19;94768.56;;;6.33;74.63
3178;BME280;38141;42.666;23.344;2023-11-19T10:38:52;94769.06;;;7.45;68.89
3178;BME280;38141;42.666;23.344;2023-11-19T10:41:28;94765.88;;;8.15;65.42
3178;BME280;38141;42.666;23.344;2023-11-19T10:43:57;94779.66;;;7.57;64.32
3178;BME280;38141;42.666;23.344;2023-11-19T10:46:36;94777.13;;;7.45;63.93
3178;BME280;38141;42.666;23.344;2023-11-19T10:49:03;94778.31;;;7.22;64.80
3178;BME280;38141;42.666;23.344;2023-11-19T10:51:32;94765.53;;;7.90;63.77
3178;BME280;38141;42.666;23.344;2023-11-19T10:54:02;94765.06;;;8.11;61.74
3178;BME280;38141;42.666;23.344;2023-11-19T10:56:32;94769.22;;;8.65;61.30
3178;BME280;38141;42.666;23.344;2023-11-19T10:59:01;94754.25;;;8.67;60.95
3178;BME280;38141;42.666;23.344;2023-11-19T11:01:34;94764.06;;;9.23;58.51
3178;BME280;38141;42.666;23.344;2023-11-19T11:04:10;94764.22;;;9.00;59.39
3178;BME280;38141;42.666;23.344;2023-11-19T11:06:40;94742.09;;;9.24;57.89
3178;BME280;38141;42.666;23.344;2023-11-19T11:09:09;94754.53;;;9.36;57.68
3178;BME280;38141;42.666;23.344;2023-11-19T11:11:38;94739.13;;;8.96;58.18
3178;BME280;38141;42.666;23.344;2023-11-19T11:14:07;94742.00;;;9.58;57.51
3178;BME280;38141;42.666;23.344;2023-11-19T11:16:37;94730.13;;;9.73;56.49
3178;BME280;38141;42.666;23.344;2023-11-19T11:19:08;94736.38;;;9.80;55.16
3178;BME280;38141;42.666;23.344;2023-11-19T11:21:36;94742.63;;;9.00;55.64
3178;BME280;38141;42.666;23.344;2023-11-19T11:24:36;94735.69;;;9.40;56.29
3178;BME280;38141;42.666;23.344;2023-11-19T11:27:42;94733.00;;;9.43;56.24
3178;BME280;38141;42.666;23.344;2023-11-19T11:30:28;94742.78;;;9.14;55.99
3178;BME280;38141;42.666;23.344;2023-11-19T11:33:06;94735.81;;;8.39;56.86
3178;BME280;38141;42.666;23.344;2023-11-19T11:35:49;94741.78;;;8.92;55.94
3178;BME280;38141;42.666;23.344;2023-11-19T11:38:22;94739.88;;;9.33;55.39
3178;BME280;38141;42.666;23.344;2023-11-19T11:41:19;94732.88;;;9.76;55.42
3178;BME280;38141;42.666;23.344;2023-11-19T11:43:48;94718.97;;;9.74;55.05
3178;BME280;38141;42.666;23.344;2023-11-19T11:49:26;94693.72;;;10.14;53.29
3178;BME280;38141;42.666;23.344;2023-11-19T11:52:02;94706.13;;;10.22;53.24
3178;BME280;38141;42.666;23.344;2023-11-19T11:54:29;94706.66;;;9.80;53.08
3178;BME280;38141;42.666;23.344;2023-11-19T11:57:06;94710.25;;;10.02;54.33
3178;BME280;38141;42.666;23.344;2023-11-19T11:59:52;94709.25;;;10.32;53.42
3178;BME280;38141;42.666;23.344;2023-11-19T12:02:20;94729.25;;;10.13;53.40
3178;BME280;38141;42.666;23.344;2023-11-19T12:04:51;94714.13;;;10.01;53.15
3178;BME280;38141;42.666;23.344;2023-11-19T12:07:20;94724.22;;;10.11;53.47
3178;BME280;38141;42.666;23.344;2023-11-19T12:09:49;94733.88;;;10.12;52.75
3178;BME280;38141;42.666;23.344;2023-11-19T12:12:22;94718.69;;;9.90;53.88
3178;BME280;38141;42.666;23.344;2023-11-19T12:15:03;94712.88;;;10.60;52.64
3178;BME280;38141;42.666;23.344;2023-11-19T12:17:42;94710.19;;;10.71;52.91
3178;BME280;38141;42.666;23.344;2023-11-19T12:20:12;94698.97;;;10.62;52.62
3178;BME280;38141;42.666;23.344;2023-11-19T12:22:40;94698.28;;;10.97;53.71
3178;BME280;38141;42.666;23.344;2023-11-19T12:25:09;94690.94;;;11.15;51.32
3178;BME280;38141;42.666;23.344;2023-11-19T12:27:39;94696.34;;;10.97;51.64
3178;BME280;38141;42.666;23.344;2023-11-19T12:30:07;94682.38;;;10.81;51.81
3178;BME280;38141;42.666;23.344;2023-11-19T12:32:38;94690.94;;;11.11;51.63
3178;BME280;38141;42.666;23.344;2023-11-19T12:35:07;94675.09;;;11.03;51.52
3178;BME280;38141;42.666;23.344;2023-11-19T12:37:41;94678.56;;;11.14;51.20
3178;BME280;38141;42.666;23.344;2023-11-19T12:40:14;94671.59;;;11.09;51.29
3178;BME280;38141;42.666;23.344;2023-11-19T12:42:45;94668.50;;;11.50;50.86
3178;BME280;38141;42.666;23.344;2023-11-19T12:45:12;94658.84;;;11.03;51.01
3178;BME280;38141;42.666;23.344;2023-11-19T12:47:40;94674.69;;;11.01;51.87
3178;BME280;38141;42.666;23.344;2023-11-19T12:50:09;94666.81;;;10.36;52.98
3178;BME280;38141;42.666;23.344;2023-11-19T12:52:37;94664.59;;;10.73;52.33
3178;BME280;38141;42.666;23.344;2023-11-19T12:55:24;94659.84;;;10.31;52.88
3178;BME280;38141;42.666;23.344;2023-11-19T12:57:51;94667.84;;;10.13;53.24
3178;BME280;38141;42.666;23.344;2023-11-19T13:00:21;94664.03;;;10.18;54.02
3178;BME280;38141;42.666;23.344;2023-11-19T13:02:48;94650.22;;;10.44;53.20
3178;BME280;38141;42.666;23.344;2023-11-19T13:05:23;94645.97;;;10.40;53.94
3178;BME280;38141;42.666;23.344;2023-11-19T13:07:51;94644.03;;;10.44;53.66
3178;BME280;38141;42.666;23.344;2023-11-19T13:10:26;94643.03;;;9.90;54.34
3178;BME280;38141;42.666;23.344;2023-11-19T13:13:03;94655.94;;;10.25;54.26
3178;BME280;38141;42.666;23.344;2023-11-19T13:15:31;94642.75;;;10.13;54.28